Time;durP1;ratioP1;P1;durP2;ratioP2;P2;SDS_P1;SDS_P2;PMS_P1;PMS_P2;Temp;Humidity;BMP_temperature;BMP_pressure;BME280_temperature;BME280_humidity;BME280_pressure;Samples;Min_cycle;Max_cycle;Signal;HPM_P1;HPM_P2
2022/03/31 00:00:35;;;;;;;6.32;1.70;;;5.20;99.90;;;;;;5119497;27;20099;-69
2022/03/31 00:03:06;;;;;;;4.72;1.70;;;5.20;99.90;;;;;;5129433;27;20039;-69
2022/03/31 00:05:32;;;;;;;3.17;1.40;;;5.20;99.90;;;;;;5128489;28;20113;-70
2022/03/31 00:08:00;;;;;;;5.47;1.75;;;5.20;99.90;;;;;;5128250;27;20043;-69
2022/03/31 00:10:32;;;;;;;4.15;1.83;;;5.10;99.90;;;;;;5128700;27;20072;-69
2022/03/31 00:12:59;;;;;;;3.28;1.52;;;5.10;99.90;;;;;;5128613;27;20046;-69
2022/03/31 00:15:27;;;;;;;5.93;1.40;;;4.90;99.90;;;;;;5146706;27;20051;-69
2022/03/31 00:17:55;;;;;;;4.28;1.33;;;4.90;99.90;;;;;;5127920;27;20521;-69
2022/03/31 00:20:20;;;;;;;3.35;1.60;;;4.90;99.90;;;;;;5129160;27;20051;-69
2022/03/31 00:22:46;;;;;;;2.95;1.45;;;4.90;99.90;;;;;;5128648;27;20073;-69
2022/03/31 00:25:13;;;;;;;4.35;1.40;;;4.90;99.90;;;;;;5128347;27;20047;-69
2022/03/31 00:27:39;;;;;;;3.42;1.30;;;4.90;99.90;;;;;;5132155;27;20100;-69
2022/03/31 00:30:08;;;;;;;4.68;1.70;;;4.90;99.90;;;;;;5148942;27;20567;-69
2022/03/31 00:32:34;;;;;;;5.82;1.65;;;4.90;99.90;;;;;;5154680;27;20046;-69
2022/03/31 00:35:00;;;;;;;7.05;2.03;;;5.00;99.90;;;;;;5173658;27;20038;-69
2022/03/31 00:37:27;;;;;;;3.55;1.70;;;5.10;99.90;;;;;;5148607;27;20043;-69
2022/03/31 00:39:54;;;;;;;3.15;1.70;;;5.00;99.90;;;;;;5167952;27;20081;-69
2022/03/31 00:42:19;;;;;;;4.47;1.48;;;5.00;99.90;;;;;;5148653;27;20059;-69
2022/03/31 00:44:45;;;;;;;4.53;1.77;;;5.10;99.90;;;;;;5148653;27;20106;-69
2022/03/31 00:47:12;;;;;;;4.82;1.75;;;5.00;99.90;;;;;;5166934;27;20062;-69
2022/03/31 00:49:38;;;;;;;3.28;1.63;;;5.00;99.90;;;;;;5167340;27;20121;-69
2022/03/31 00:52:04;;;;;;;3.83;1.70;;;5.00;99.90;;;;;;5153234;27;20042;-69
2022/03/31 00:54:32;;;;;;;3.40;1.52;;;5.10;99.90;;;;;;5175441;27;20045;-69
2022/03/31 00:57:00;;;;;;;9.00;3.25;;;5.20;99.90;;;;;;5145553;27;20059;-69
2022/03/31 00:59:26;;;;;;;3.83;1.55;;;5.10;99.90;;;;;;5149502;27;20053;-70
2022/03/31 01:01:53;;;;;;;2.28;1.60;;;5.10;99.90;;;;;;5166874;27;20066;-69
2022/03/31 01:04:19;;;;;;;3.60;2.08;;;5.10;99.90;;;;;;5148488;27;20046;-69
2022/03/31 01:06:45;;;;;;;4.72;2.08;;;5.00;99.90;;;;;;5166579;27;20098;-69
2022/03/31 01:09:12;;;;;;;4.88;1.85;;;5.00;99.90;;;;;;5167774;27;20046;-69
2022/03/31 01:11:39;;;;;;;6.43;2.28;;;5.20;99.90;;;;;;5148263;27;20110;-69
2022/03/31 01:14:06;;;;;;;4.85;2.35;;;4.90;99.90;;;;;;5166739;27;20051;-69
2022/03/31 01:16:33;;;;;;;4.90;2.10;;;5.10;99.90;;;;;;5147593;27;20121;-69
2022/03/31 01:19:06;;;;;;;4.28;2.70;;;5.00;99.90;;;;;;5139937;27;20117;-69
2022/03/31 01:21:40;;;;;;;4.13;1.95;;;5.00;99.90;;;;;;5148118;27;20046;-69
2022/03/31 01:24:07;;;;;;;5.70;2.28;;;4.80;99.90;;;;;;5148075;27;20049;-69
2022/03/31 01:26:34;;;;;;;4.18;2.13;;;4.80;99.90;;;;;;5147697;27;20087;-69
2022/03/31 01:29:00;;;;;;;4.68;2.20;;;4.90;99.90;;;;;;5147682;27;20130;-69
2022/03/31 01:31:26;;;;;;;5.45;2.20;;;4.80;99.90;;;;;;5166659;27;20042;-69
2022/03/31 01:33:53;;;;;;;5.47;2.40;;;4.90;99.90;;;;;;5154108;27;20551;-69
2022/03/31 01:36:19;;;;;;;4.82;2.88;;;4.90;99.90;;;;;;5147614;27;20058;-69
2022/03/31 01:38:46;;;;;;;8.90;2.55;;;5.10;99.90;;;;;;5167137;27;20098;-69
2022/03/31 01:41:12;;;;;;;8.18;2.72;;;5.00;99.90;;;;;;5131808;27;20086;-69
2022/03/31 01:43:38;;;;;;;5.55;2.75;;;5.10;99.90;;;;;;5166442;27;20058;-69
2022/03/31 01:46:04;;;;;;;7.65;2.63;;;5.20;99.90;;;;;;5180666;27;20081;-69
2022/03/31 01:48:30;;;;;;;5.28;2.28;;;5.20;99.90;;;;;;5147512;27;20135;-69
2022/03/31 01:50:56;;;;;;;5.88;2.47;;;5.10;99.90;;;;;;5147909;27;20065;-69
2022/03/31 01:53:22;;;;;;;6.13;3.05;;;5.10;99.90;;;;;;5147726;27;20055;-69
2022/03/31 01:55:48;;;;;;;4.75;2.38;;;5.00;99.90;;;;;;5148512;27;20058;-69
2022/03/31 01:58:14;;;;;;;5.45;2.70;;;5.10;99.90;;;;;;5150495;27;20077;-69
2022/03/31 02:00:39;;;;;;;5.68;2.63;;;5.20;99.90;;;;;;5152681;27;20050;-69
2022/03/31 02:03:05;;;;;;;6.68;3.30;;;5.00;99.90;;;;;;5167108;27;20045;-69
2022/03/31 02:05:31;;;;;;;7.05;2.72;;;5.00;99.90;;;;;;5147636;27;20043;-69
2022/03/31 02:07:57;;;;;;;8.50;3.05;;;4.90;99.90;;;;;;5166141;27;20074;-69
2022/03/31 02:10:25;;;;;;;6.38;3.33;;;4.90;99.90;;;;;;5147694;27;20053;-69
2022/03/31 02:12:51;;;;;;;9.63;4.60;;;5.00;99.90;;;;;;5131100;27;20098;-69
2022/03/31 02:15:17;;;;;;;7.03;3.97;;;4.90;99.90;;;;;;5147529;27;20058;-69
2022/03/31 02:17:42;;;;;;;12.35;5.10;;;4.90;99.90;;;;;;5158222;27;20586;-69
2022/03/31 02:20:09;;;;;;;5.50;4.32;;;4.90;99.90;;;;;;5121582;27;20046;-69
2022/03/31 02:22:34;;;;;;;6.85;4.78;;;4.90;99.90;;;;;;5166319;27;20402;-69
2022/03/31 02:25:01;;;;;;;7.03;4.45;;;4.90;99.90;;;;;;5147928;27;20102;-69
2022/03/31 02:27:26;;;;;;;5.95;5.05;;;4.80;99.90;;;;;;5147207;27;20071;-69
2022/03/31 02:29:52;;;;;;;9.02;5.10;;;4.70;99.90;;;;;;5149695;27;20051;-69
2022/03/31 02:32:18;;;;;;;8.88;5.00;;;4.90;99.90;;;;;;5151573;27;20046;-69
2022/03/31 02:34:43;;;;;;;10.05;4.82;;;4.80;99.90;;;;;;5151814;27;20068;-69
2022/03/31 02:37:09;;;;;;;7.40;5.00;;;4.90;99.90;;;;;;5150842;27;20083;-69
2022/03/31 02:39:35;;;;;;;8.02;5.40;;;4.90;99.90;;;;;;5151449;27;20046;-69
2022/03/31 02:42:01;;;;;;;6.28;5.40;;;4.80;99.90;;;;;;5151742;27;20102;-69
2022/03/31 02:44:27;;;;;;;9.18;6.07;;;4.90;99.90;;;;;;5170411;27;20072;-69
2022/03/31 02:46:53;;;;;;;7.20;5.40;;;4.90;99.90;;;;;;5133536;27;20066;-69
2022/03/31 02:49:19;;;;;;;7.28;5.28;;;5.00;99.90;;;;;;5150534;27;20047;-69
2022/03/31 02:51:44;;;;;;;6.82;5.72;;;5.00;99.90;;;;;;5173686;27;20073;-69
2022/03/31 02:56:55;;;;;;;8.23;6.07;;;5.00;99.90;;;;;;5169138;27;20062;-69
2022/03/31 02:59:20;;;;;;;9.80;7.70;;;5.00;99.90;;;;;;5151327;27;20042;-69
2022/03/31 03:01:47;;;;;;;9.02;7.75;;;5.20;99.90;;;;;;5151274;27;20559;-69
2022/03/31 03:04:13;;;;;;;8.80;7.55;;;5.00;99.90;;;;;;5169240;27;20092;-69
2022/03/31 03:06:39;;;;;;;9.85;8.85;;;5.00;99.90;;;;;;5150756;27;20153;-69
2022/03/31 03:09:06;;;;;;;9.88;8.70;;;5.00;99.90;;;;;;5150388;27;20053;-69
2022/03/31 03:11:32;;;;;;;9.82;8.68;;;5.00;99.90;;;;;;5168704;27;20052;-69
2022/03/31 03:13:58;;;;;;;10.00;9.00;;;4.90;99.90;;;;;;5150470;27;20051;-69
2022/03/31 03:16:25;;;;;;;9.70;8.68;;;4.90;99.90;;;;;;5169574;27;20471;-69
2022/03/31 03:18:52;;;;;;;9.90;8.90;;;4.80;99.90;;;;;;5163170;27;20047;-69
2022/03/31 03:21:19;;;;;;;9.23;8.20;;;4.90;99.90;;;;;;5168983;27;20092;-69
2022/03/31 03:23:45;;;;;;;10.43;9.32;;;4.80;99.90;;;;;;5168548;27;20046;-69
2022/03/31 03:26:11;;;;;;;10.82;9.18;;;4.80;99.90;;;;;;5149953;27;20047;-69
2022/03/31 03:28:37;;;;;;;11.27;9.38;;;4.60;99.90;;;;;;5139630;27;20096;-69
2022/03/31 03:31:07;;;;;;;9.93;8.65;;;4.60;99.90;;;;;;5129394;27;20103;-69
2022/03/31 03:33:33;;;;;;;10.30;9.20;;;4.40;99.90;;;;;;5120191;27;20109;-69
2022/03/31 03:36:04;;;;;;;10.65;9.15;;;4.50;99.90;;;;;;5147828;27;20127;-69
2022/03/31 03:38:31;;;;;;;10.65;9.43;;;4.40;99.90;;;;;;5111626;27;20084;-69
2022/03/31 03:40:56;;;;;;;10.73;9.00;;;4.50;99.90;;;;;;5147749;27;20050;-69
2022/03/31 03:43:22;;;;;;;10.00;9.00;;;4.50;99.90;;;;;;5129254;27;20043;-69
2022/03/31 03:45:48;;;;;;;10.02;9.00;;;4.50;99.90;;;;;;5147810;27;20513;-69
2022/03/31 03:48:13;;;;;;;12.15;9.20;;;4.60;99.90;;;;;;5128921;27;20039;-69
2022/03/31 03:50:40;;;;;;;11.07;10.00;;;4.60;99.90;;;;;;5129246;27;20043;-69
2022/03/31 03:53:06;;;;;;;9.98;8.98;;;4.60;99.90;;;;;;5129169;27;20144;-69
2022/03/31 03:55:34;;;;;;;9.98;8.73;;;4.50;99.90;;;;;;5120348;27;20091;-70
2022/03/31 03:58:00;;;;;;;10.23;8.57;;;4.40;99.90;;;;;;5128818;27;20100;-69
2022/03/31 04:00:27;;;;;;;10.07;8.50;;;4.50;99.90;;;;;;5146944;27;20047;-69
2022/03/31 04:02:53;;;;;;;10.82;9.30;;;4.50;99.90;;;;;;5128741;27;20170;-69
2022/03/31 04:05:20;;;;;;;11.55;9.45;;;4.50;99.90;;;;;;5147321;27;20071;-69
2022/03/31 04:07:46;;;;;;;9.98;8.98;;;4.40;99.90;;;;;;5128895;27;20050;-69
2022/03/31 04:10:11;;;;;;;10.00;8.95;;;4.40;99.90;;;;;;5147311;27;20047;-69
2022/03/31 04:12:38;;;;;;;10.40;9.30;;;4.50;99.90;;;;;;5147560;27;20553;-69
2022/03/31 04:15:06;;;;;;;9.75;8.75;;;4.30;99.90;;;;;;5128852;27;20079;-69
2022/03/31 04:17:35;;;;;;;9.90;8.77;;;4.50;99.90;;;;;;5123473;28;20112;-69
2022/03/31 04:20:01;;;;;;;10.40;9.30;;;4.50;99.90;;;;;;5122249;27;20039;-69
2022/03/31 04:22:27;;;;;;;10.80;9.65;;;4.50;99.90;;;;;;5147298;27;20039;-69
2022/03/31 04:24:53;;;;;;;9.55;8.65;;;4.50;99.90;;;;;;5128276;27;20054;-69
2022/03/31 04:27:19;;;;;;;10.38;9.30;;;4.50;99.90;;;;;;5128424;27;20051;-69
2022/03/31 04:29:44;;;;;;;10.18;9.07;;;4.30;99.90;;;;;;5127693;27;20554;-69
2022/03/31 04:32:11;;;;;;;10.02;8.93;;;4.40;99.90;;;;;;5127902;27;20098;-69
2022/03/31 04:34:36;;;;;;;11.40;9.48;;;4.50;99.90;;;;;;5111415;27;20130;-69
2022/03/31 04:37:02;;;;;;;11.25;9.10;;;4.50;99.90;;;;;;5128167;27;20528;-69
2022/03/31 04:39:28;;;;;;;10.15;8.75;;;4.40;99.90;;;;;;5146340;27;20082;-69
2022/03/31 04:41:54;;;;;;;10.02;9.02;;;4.50;99.90;;;;;;5128144;27;20060;-69
2022/03/31 04:44:20;;;;;;;10.50;9.35;;;4.40;99.90;;;;;;5146428;27;20072;-69
2022/03/31 04:46:47;;;;;;;10.10;8.73;;;4.40;99.90;;;;;;5128046;27;20051;-69
2022/03/31 04:49:13;;;;;;;10.77;9.68;;;4.50;99.90;;;;;;5111361;27;20070;-69
2022/03/31 04:51:39;;;;;;;10.75;9.45;;;4.40;99.90;;;;;;5127702;27;20043;-69
2022/03/31 04:54:05;;;;;;;11.20;9.27;;;4.30;99.90;;;;;;5127681;27;20135;-69
2022/03/31 04:56:31;;;;;;;10.07;8.98;;;4.30;99.90;;;;;;5127466;27;20495;-69
2022/03/31 04:58:57;;;;;;;11.20;10.10;;;4.40;99.90;;;;;;5127705;27;20047;-69
2022/03/31 05:01:23;;;;;;;10.90;9.02;;;4.40;99.90;;;;;;5127446;27;20073;-69
2022/03/31 05:03:50;;;;;;;10.70;9.60;;;4.30;99.90;;;;;;5146387;27;20074;-69
2022/03/31 05:06:16;;;;;;;10.65;9.52;;;4.30;99.90;;;;;;5127817;27;20057;-67
2022/03/31 05:08:42;;;;;;;11.45;9.88;;;4.20;99.90;;;;;;5125808;27;20043;-69
2022/03/31 05:11:08;;;;;;;10.50;9.40;;;4.40;99.90;;;;;;5108823;27;20578;-69
2022/03/31 05:13:34;;;;;;;10.57;9.48;;;4.40;99.90;;;;;;5144963;27;20039;-68
2022/03/31 05:16:00;;;;;;;11.38;9.50;;;4.40;99.90;;;;;;5126546;27;20039;-69
2022/03/31 05:18:26;;;;;;;11.98;10.68;;;4.30;99.90;;;;;;5131425;27;20043;-70
2022/03/31 05:20:52;;;;;;;10.45;9.07;;;4.30;99.90;;;;;;5090885;28;20073;-69
2022/03/31 05:23:18;;;;;;;11.52;9.45;;;4.40;99.90;;;;;;5109025;28;20047;-69
2022/03/31 05:25:44;;;;;;;9.57;8.57;;;4.40;99.90;;;;;;5097634;28;20057;-69
2022/03/31 05:28:11;;;;;;;10.23;9.20;;;4.20;99.90;;;;;;5110293;28;20073;-69
2022/03/31 05:30:37;;;;;;;10.07;9.05;;;4.20;99.90;;;;;;5108585;28;20044;-70
2022/03/31 05:33:03;;;;;;;10.45;9.35;;;4.10;99.90;;;;;;5121462;28;20043;-70
2022/03/31 05:35:29;;;;;;;11.05;9.95;;;4.10;99.90;;;;;;5120456;28;20039;-69
2022/03/31 05:37:56;;;;;;;10.82;9.73;;;3.90;99.90;;;;;;5108991;28;20058;-70
2022/03/31 05:40:22;;;;;;;9.77;8.77;;;3.90;99.90;;;;;;5137515;28;20493;-67
2022/03/31 05:42:48;;;;;;;10.85;9.77;;;4.00;99.90;;;;;;5124535;28;20047;-68
2022/03/31 05:45:14;;;;;;;10.35;9.35;;;3.90;99.90;;;;;;5118869;28;20055;-69
2022/03/31 05:47:41;;;;;;;10.77;9.68;;;3.70;99.90;;;;;;5125813;28;20080;-69
2022/03/31 05:50:08;;;;;;;9.57;8.57;;;3.90;99.90;;;;;;5118597;28;20039;-69
2022/03/31 05:52:42;;;;;;;9.43;8.52;;;4.00;99.90;;;;;;5107739;28;20066;-68
2022/03/31 05:55:16;;;;;;;9.90;8.23;;;4.10;99.90;;;;;;5135395;28;20103;-69
2022/03/31 05:57:43;;;;;;;10.27;9.27;;;4.00;99.90;;;;;;5108414;28;20451;-69
2022/03/31 06:00:14;;;;;;;9.70;8.77;;;4.00;99.90;;;;;;5118052;28;20047;-67
2022/03/31 06:02:40;;;;;;;10.75;9.65;;;4.00;99.90;;;;;;5098418;28;20069;-68
2022/03/31 06:05:06;;;;;;;10.15;9.15;;;4.00;99.90;;;;;;5140507;27;20502;-67
2022/03/31 06:07:32;;;;;;;10.80;9.70;;;4.10;99.90;;;;;;5106874;27;20074;-69
2022/03/31 06:09:58;;;;;;;10.30;9.23;;;4.10;99.90;;;;;;5140567;27;20272;-69
2022/03/31 06:12:23;;;;;;;10.48;9.43;;;4.00;99.90;;;;;;5120866;27;20149;-68
2022/03/31 06:14:49;;;;;;;10.95;9.85;;;4.10;99.90;;;;;;5136959;27;20035;-69
2022/03/31 06:17:15;;;;;;;9.82;8.82;;;4.00;99.90;;;;;;5102164;27;20142;-71
2022/03/31 06:19:41;;;;;;;10.10;8.88;;;4.10;99.90;;;;;;5115924;27;20676;-67
2022/03/31 06:22:07;;;;;;;10.10;9.10;;;4.00;99.90;;;;;;5120683;27;20050;-68
2022/03/31 06:24:33;;;;;;;10.30;9.20;;;4.00;99.90;;;;;;5135250;27;20047;-68
2022/03/31 06:27:00;;;;;;;11.10;9.98;;;4.10;99.90;;;;;;5112813;27;20080;-68
2022/03/31 06:29:27;;;;;;;11.10;10.00;;;4.00;99.90;;;;;;5124139;27;20083;-68
2022/03/31 06:31:53;;;;;;;11.52;9.90;;;4.10;99.90;;;;;;5111838;27;20051;-69
2022/03/31 06:34:20;;;;;;;11.35;9.73;;;4.20;99.90;;;;;;5120564;27;20051;-69
2022/03/31 06:36:46;;;;;;;12.50;10.98;;;4.10;99.90;;;;;;5111370;27;20122;-69
2022/03/31 06:39:13;;;;;;;11.00;9.90;;;4.10;99.90;;;;;;5122811;27;20061;-68
2022/03/31 06:41:40;;;;;;;14.20;12.07;;;4.10;99.90;;;;;;5110563;27;20442;-70
2022/03/31 06:44:08;;;;;;;12.80;11.43;;;3.90;99.90;;;;;;5120617;27;20047;-71
2022/03/31 06:46:35;;;;;;;12.50;11.20;;;3.80;99.90;;;;;;5111175;27;20055;-70
2022/03/31 06:49:01;;;;;;;13.32;11.93;;;3.90;99.90;;;;;;5120409;27;20027;-70
2022/03/31 06:51:26;;;;;;;13.02;11.68;;;4.00;99.90;;;;;;5093954;27;20043;-72
2022/03/31 06:53:54;;;;;;;14.15;12.68;;;4.10;99.90;;;;;;5119754;27;20175;-71
2022/03/31 06:56:20;;;;;;;14.32;12.82;;;4.00;99.90;;;;;;5093590;27;20043;-72
2022/03/31 06:58:46;;;;;;;14.13;12.55;;;3.90;99.90;;;;;;5119529;27;20461;-71
2022/03/31 07:01:12;;;;;;;14.25;12.75;;;4.00;99.90;;;;;;5137973;27;20039;-71
2022/03/31 07:03:38;;;;;;;15.13;13.45;;;4.00;99.90;;;;;;5108957;27;20057;-71
2022/03/31 07:06:03;;;;;;;16.33;13.82;;;4.00;99.90;;;;;;5120323;27;20066;-71
2022/03/31 07:08:30;;;;;;;14.68;13.05;;;4.00;99.90;;;;;;5087014;27;20047;-71
2022/03/31 07:10:56;;;;;;;15.63;13.98;;;3.90;99.90;;;;;;5128060;27;20058;-71
2022/03/31 07:13:22;;;;;;;16.55;13.98;;;4.00;99.90;;;;;;5128155;27;20051;-71
2022/03/31 07:15:48;;;;;;;18.25;14.95;;;4.10;99.90;;;;;;5122787;27;20234;-71
2022/03/31 07:18:13;;;;;;;17.95;14.75;;;4.10;99.90;;;;;;5095328;27;20119;-71
2022/03/31 07:20:39;;;;;;;17.50;15.38;;;4.00;99.90;;;;;;5105566;27;20526;-72
2022/03/31 07:23:06;;;;;;;17.58;15.20;;;3.90;99.90;;;;;;5119406;27;20047;-72
2022/03/31 07:25:32;;;;;;;18.67;15.88;;;4.00;99.90;;;;;;5120417;27;20129;-71
2022/03/31 07:27:58;;;;;;;18.00;15.13;;;4.10;99.90;;;;;;5109672;27;20152;-71
2022/03/31 07:30:25;;;;;;;17.88;15.02;;;4.10;99.90;;;;;;5103344;27;20061;-71
2022/03/31 07:33:09;;;;;;;19.20;15.85;;;4.20;99.90;;;;;;5109001;27;20043;-71
2022/03/31 07:35:37;;;;;;;17.63;14.73;;;4.00;99.90;;;;;;5139473;27;20046;-71
2022/03/31 07:38:04;;;;;;;18.88;16.20;;;4.10;99.90;;;;;;5109237;27;20053;-71
2022/03/31 07:40:30;;;;;;;20.75;17.33;;;4.20;99.90;;;;;;5104256;27;20037;-71
2022/03/31 07:42:56;;;;;;;22.27;17.17;;;4.20;99.90;;;;;;5109300;27;20466;-71
2022/03/31 07:45:23;;;;;;;21.40;16.63;;;4.10;99.90;;;;;;5137849;27;20422;-71
2022/03/31 07:47:50;;;;;;;20.45;16.40;;;4.20;99.90;;;;;;5127196;27;20146;-71
2022/03/31 07:50:17;;;;;;;20.35;15.93;;;4.20;99.90;;;;;;5119705;27;20450;-71
2022/03/31 07:52:43;;;;;;;20.85;16.52;;;4.20;99.90;;;;;;5108760;27;20130;-71
2022/03/31 07:55:11;;;;;;;18.35;15.55;;;4.20;99.90;;;;;;5119106;27;20039;-71
2022/03/31 07:57:37;;;;;;;18.45;16.05;;;4.30;99.90;;;;;;5120606;27;20039;-71
2022/03/31 08:00:05;;;;;;;20.35;16.77;;;4.30;99.90;;;;;;5129192;27;20039;-71
2022/03/31 08:02:31;;;;;;;18.27;16.13;;;4.20;99.90;;;;;;5110034;27;20551;-70
2022/03/31 08:04:56;;;;;;;19.85;16.17;;;4.20;99.90;;;;;;5119245;27;20039;-70
2022/03/31 08:07:22;;;;;;;19.13;15.60;;;4.10;99.90;;;;;;5064820;27;20108;-71
2022/03/31 08:09:48;;;;;;;19.77;16.60;;;4.00;99.90;;;;;;5118659;27;20078;-71
2022/03/31 08:12:13;;;;;;;19.10;16.40;;;4.20;99.90;;;;;;5110016;27;20055;-71
2022/03/31 08:14:39;;;;;;;18.65;14.27;;;4.10;99.90;;;;;;5118169;27;20039;-71
2022/03/31 08:17:05;;;;;;;16.42;14.05;;;4.20;99.90;;;;;;5109125;27;20085;-71
2022/03/31 08:19:32;;;;;;;16.48;13.85;;;4.00;99.90;;;;;;5102087;27;20069;-71
2022/03/31 08:22:02;;;;;;;16.60;13.30;;;4.30;99.90;;;;;;5094800;27;20042;-71
2022/03/31 08:24:28;;;;;;;;;;;4.30;99.90;;;;;;5087906;27;20074;-71
2022/03/31 08:26:54;;;;;;;16.42;12.93;;;4.20;99.90;;;;;;5091118;28;19932;-71
2022/03/31 08:29:20;;;;;;;15.32;12.75;;;4.20;99.90;;;;;;5118638;27;20075;-70
2022/03/31 08:31:46;;;;;;;13.73;12.23;;;4.10;99.90;;;;;;5108311;27;20122;-71
2022/03/31 08:34:12;;;;;;;15.02;11.88;;;4.00;99.90;;;;;;5118853;27;20043;-70
2022/03/31 08:36:37;;;;;;;14.50;11.32;;;4.00;99.90;;;;;;5090854;27;20230;-71
2022/03/31 08:39:04;;;;;;;12.07;10.63;;;4.10;99.90;;;;;;5107485;27;20569;-71
2022/03/31 08:41:31;;;;;;;13.70;11.52;;;3.90;99.90;;;;;;5105071;27;20047;-70
2022/03/31 08:43:57;;;;;;;12.95;11.27;;;4.00;99.90;;;;;;5107902;27;20054;-71
2022/03/31 08:46:27;;;;;;;13.00;9.77;;;3.80;99.90;;;;;;5118906;27;20068;-71
2022/03/31 08:48:55;;;;;;;11.60;9.75;;;4.20;99.90;;;;;;5107842;27;20047;-71
2022/03/31 08:51:22;;;;;;;11.25;9.30;;;4.20;99.90;;;;;;5119090;27;20039;-71
2022/03/31 08:53:48;;;;;;;8.95;7.88;;;4.10;99.90;;;;;;5107030;27;20055;-71
2022/03/31 08:56:14;;;;;;;8.27;6.97;;;4.20;99.90;;;;;;5117707;27;20107;-71
2022/03/31 08:58:43;;;;;;;8.32;6.78;;;4.00;99.90;;;;;;5107583;27;20138;-71
2022/03/31 09:01:11;;;;;;;7.07;5.60;;;3.80;99.90;;;;;;5118330;27;20039;-71
2022/03/31 09:03:38;;;;;;;7.25;5.53;;;3.80;99.90;;;;;;5107295;27;20084;-70
2022/03/31 09:06:04;;;;;;;7.40;6.10;;;3.80;99.90;;;;;;5118609;27;20062;-71
2022/03/31 09:08:30;;;;;;;6.22;5.13;;;4.00;99.90;;;;;;5079451;27;20047;-71
2022/03/31 09:11:00;;;;;;;6.65;5.35;;;3.70;99.90;;;;;;5093808;28;20050;-71
2022/03/31 09:13:30;;;;;;;6.10;5.47;;;4.00;99.90;;;;;;5109420;27;20047;-71
2022/03/31 09:16:09;;;;;;;6.63;5.30;;;3.90;99.90;;;;;;5118866;27;20047;-71
2022/03/31 09:18:36;;;;;;;7.43;5.85;;;3.70;99.90;;;;;;5107653;27;20089;-71
2022/03/31 09:21:05;;;;;;;7.68;6.07;;;3.70;99.90;;;;;;5117892;28;20047;-71
2022/03/31 09:23:38;;;;;;;5.70;4.90;;;3.60;99.90;;;;;;5106032;27;20051;-70
2022/03/31 09:26:08;;;;;;;6.90;5.57;;;3.80;99.90;;;;;;5119176;28;20467;-70
2022/03/31 09:28:36;;;;;;;7.15;6.07;;;3.60;99.90;;;;;;5107110;28;20150;-71
2022/03/31 09:31:03;;;;;;;6.85;5.85;;;3.50;99.90;;;;;;5118671;28;20051;-71
2022/03/31 09:33:40;;;;;;;7.32;6.20;;;3.80;99.90;;;;;;5102242;28;20130;-71
2022/03/31 09:36:07;;;;;;;7.82;6.68;;;3.80;99.90;;;;;;5115330;28;20319;-70
2022/03/31 09:38:38;;;;;;;7.32;6.03;;;3.50;99.90;;;;;;5108455;27;20503;-71
2022/03/31 09:41:26;;;;;;;7.07;6.28;;;3.70;99.90;;;;;;5122334;27;20047;-71
2022/03/31 09:43:54;;;;;;;7.05;6.05;;;3.50;99.90;;;;;;5110811;27;20116;-70
2022/03/31 09:46:33;;;;;;;7.28;6.55;;;3.60;99.90;;;;;;5122490;27;20403;-71
2022/03/31 09:49:09;;;;;;;6.28;5.55;;;3.50;99.90;;;;;;5111039;27;20059;-71
2022/03/31 09:51:35;;;;;;;7.22;6.22;;;3.50;99.90;;;;;;5105087;27;20118;-71
2022/03/31 09:54:02;;;;;;;7.82;6.53;;;3.40;99.90;;;;;;5110846;27;20381;-71
2022/03/31 09:56:28;;;;;;;6.63;5.82;;;3.50;99.90;;;;;;5118919;27;20314;-71
2022/03/31 09:58:59;;;;;;;7.00;5.82;;;3.40;99.90;;;;;;5111152;27;20058;-70
2022/03/31 10:01:25;;;;;;;6.72;6.03;;;3.20;99.90;;;;;;5122133;27;20043;-70
2022/03/31 10:03:54;;;;;;;7.05;6.10;;;3.30;99.90;;;;;;5112982;27;20070;-71
2022/03/31 10:06:20;;;;;;;6.88;5.88;;;3.30;99.90;;;;;;5092310;27;20051;-71
2022/03/31 10:08:48;;;;;;;7.65;6.60;;;3.40;99.90;;;;;;5099164;27;20663;-72
2022/03/31 10:11:16;;;;;;;7.20;6.38;;;3.20;99.90;;;;;;5108356;27;20051;-71
2022/03/31 10:14:13;;;;;;;7.00;6.30;;;3.30;99.90;;;;;;5109446;27;20063;-69
2022/03/31 10:16:50;;;;;;;8.07;6.53;;;3.40;99.90;;;;;;5104201;27;20050;-68
2022/03/31 10:19:37;;;;;;;7.18;5.90;;;3.20;99.90;;;;;;5110309;27;20063;-68
2022/03/31 10:22:08;;;;;;;7.75;6.57;;;3.40;99.90;;;;;;5109855;27;20034;-68
2022/03/31 10:24:44;;;;;;;8.75;6.85;;;3.30;99.90;;;;;;5139166;27;20098;-68
2022/03/31 10:27:25;;;;;;;8.07;6.63;;;3.40;99.90;;;;;;5110702;27;20414;-67
2022/03/31 10:29:51;;;;;;;7.65;6.18;;;3.30;99.90;;;;;;5139326;27;20051;-67
2022/03/31 10:32:20;;;;;;;7.18;6.18;;;3.40;99.90;;;;;;5110465;27;20051;-68
2022/03/31 10:34:48;;;;;;;7.78;5.95;;;3.20;99.90;;;;;;5119644;27;20098;-67
2022/03/31 10:37:31;;;;;;;7.70;5.90;;;3.40;99.90;;;;;;5110459;27;20054;-67
2022/03/31 10:39:57;;;;;;;7.97;6.75;;;3.10;99.90;;;;;;5119973;27;20055;-67
2022/03/31 10:42:24;;;;;;;6.78;5.60;;;3.30;99.90;;;;;;5109788;27;20104;-67
2022/03/31 10:45:09;;;;;;;7.05;5.95;;;3.30;99.90;;;;;;5136728;27;20039;-67
2022/03/31 10:47:35;;;;;;;7.13;5.97;;;3.40;99.90;;;;;;5110054;27;20429;-67
2022/03/31 10:50:03;;;;;;;6.55;5.85;;;3.30;99.90;;;;;;5119017;27;20551;-67
2022/03/31 10:52:29;;;;;;;6.55;5.75;;;3.40;99.90;;;;;;5109481;27;20054;-67
2022/03/31 10:55:33;;;;;;;7.30;6.40;;;3.20;99.90;;;;;;5119802;27;20091;-66
2022/03/31 10:57:58;;;;;;;7.43;6.07;;;3.10;99.90;;;;;;5117680;27;20390;-66
2022/03/31 11:00:24;;;;;;;6.35;5.45;;;3.10;99.90;;;;;;5137715;27;20070;-70
2022/03/31 11:02:52;;;;;;;6.68;5.78;;;3.20;99.90;;;;;;5127680;27;21093;-70
2022/03/31 11:05:22;;;;;;;7.10;6.18;;;3.10;99.90;;;;;;5116631;27;20126;-69
2022/03/31 11:07:48;;;;;;;7.28;6.47;;;3.20;99.90;;;;;;5077369;28;20126;-70
2022/03/31 11:10:15;;;;;;;6.72;5.90;;;3.20;99.90;;;;;;5108920;27;20147;-70
2022/03/31 11:12:42;;;;;;;7.10;6.10;;;3.30;99.90;;;;;;5109368;27;20546;-71
2022/03/31 11:15:17;;;;;;;6.47;5.72;;;3.20;99.90;;;;;;5119525;27;20043;-70
2022/03/31 11:17:43;;;;;;;6.85;5.72;;;3.20;99.90;;;;;;5092997;27;20435;-71
2022/03/31 11:20:21;;;;;;;6.53;5.82;;;3.10;99.90;;;;;;5120012;27;20058;-70
2022/03/31 11:22:52;;;;;;;6.07;5.38;;;3.20;99.90;;;;;;5108860;27;20043;-69
2022/03/31 11:25:19;;;;;;;7.15;6.45;;;3.20;99.90;;;;;;5119470;27;20074;-69
2022/03/31 11:27:46;;;;;;;7.35;6.28;;;3.10;99.90;;;;;;5109253;27;20130;-70
2022/03/31 11:30:15;;;;;;;10.23;8.73;;;3.10;99.90;;;;;;5119943;27;20090;-69
2022/03/31 11:32:42;;;;;;;8.70;7.68;;;3.30;99.90;;;;;;5109144;27;20099;-70
2022/03/31 11:35:20;;;;;;;8.50;7.55;;;3.30;99.90;;;;;;5119090;27;20043;-69
2022/03/31 11:37:57;;;;;;;10.18;8.65;;;3.10;99.90;;;;;;5109407;27;20561;-69
2022/03/31 11:40:23;;;;;;;9.77;8.77;;;3.10;99.90;;;;;;5120489;27;20075;-69
2022/03/31 11:42:51;;;;;;;9.05;7.85;;;3.10;99.90;;;;;;5110278;27;20127;-69
2022/03/31 11:45:33;;;;;;;8.90;8.00;;;3.20;99.90;;;;;;5118818;27;20106;-69
2022/03/31 11:48:19;;;;;;;8.80;7.90;;;3.20;99.90;;;;;;5108948;27;20096;-69
2022/03/31 11:50:49;;;;;;;9.38;8.48;;;3.20;99.90;;;;;;5121373;27;20574;-70
2022/03/31 11:53:17;;;;;;;10.85;9.75;;;3.10;99.90;;;;;;5127911;27;20047;-69
2022/03/31 11:55:44;;;;;;;10.40;9.40;;;3.30;99.90;;;;;;5118645;27;20047;-69
2022/03/31 11:58:09;;;;;;;15.55;14.15;;;3.30;99.90;;;;;;5109508;27;20099;-69
2022/03/31 12:00:35;;;;;;;11.82;10.20;;;3.40;99.90;;;;;;5118848;27;20051;-69
2022/03/31 12:03:04;;;;;;;11.25;9.57;;;3.40;99.90;;;;;;5125552;27;20542;-69
2022/03/31 12:05:30;;;;;;;11.45;9.85;;;3.40;99.90;;;;;;5135540;27;20042;-70
2022/03/31 12:07:58;;;;;;;13.57;11.68;;;3.20;99.90;;;;;;5100201;27;20070;-69
2022/03/31 12:10:24;;;;;;;13.77;11.50;;;3.40;99.90;;;;;;5120145;27;20694;-68
2022/03/31 12:12:53;;;;;;;13.80;11.70;;;3.20;99.90;;;;;;5091493;27;20051;-70
2022/03/31 12:15:30;;;;;;;16.13;13.63;;;3.30;99.90;;;;;;5118359;27;20066;-69
2022/03/31 12:17:58;;;;;;;17.52;15.60;;;3.30;99.90;;;;;;5108728;27;20515;-69
2022/03/31 12:20:25;;;;;;;32.58;23.05;;;3.20;99.90;;;;;;5102095;27;20042;-69
2022/03/31 12:22:51;;;;;;;28.13;21.52;;;3.30;99.90;;;;;;5108005;27;20051;-69
2022/03/31 12:25:35;;;;;;;23.65;19.33;;;3.40;99.90;;;;;;5118725;27;20307;-69
2022/03/31 12:28:05;;;;;;;25.35;19.48;;;3.30;99.90;;;;;;5108478;27;20390;-69
2022/03/31 12:30:44;;;;;;;;;;;3.40;99.90;;;;;;5119397;27;20106;-69
2022/03/31 12:33:19;;;;;;;28.70;22.45;;;3.60;99.90;;;;;;5107760;27;19954;-69
2022/03/31 12:36:02;;;;;;;31.45;23.10;;;3.40;99.90;;;;;;5111502;27;20104;-69
2022/03/31 12:38:44;;;;;;;31.67;23.77;;;3.60;99.90;;;;;;5097199;27;20055;-70
2022/03/31 12:41:24;;;;;;;32.65;23.50;;;3.50;99.90;;;;;;5118770;27;20051;-69
2022/03/31 12:44:02;;;;;;;33.20;24.02;;;3.60;99.90;;;;;;5107589;27;20085;-69
2022/03/31 12:46:40;;;;;;;26.42;21.30;;;3.70;99.90;;;;;;5118719;27;20371;-70
2022/03/31 12:49:13;;;;;;;29.60;21.65;;;3.80;99.90;;;;;;5127279;27;20060;-70
2022/03/31 12:51:53;;;;;;;29.17;20.23;;;3.90;99.90;;;;;;5118622;27;20443;-70
2022/03/31 12:54:24;;;;;;;24.95;19.73;;;3.80;99.90;;;;;;5124936;27;20055;-70
2022/03/31 12:56:52;;;;;;;28.20;20.13;;;3.90;99.90;;;;;;5118164;27;20035;-69